createdAt,value
2023-03-11T00:09:18.204Z,2.55
2023-03-11T00:19:18.399Z,2.51
2023-03-11T00:29:18.655Z,2.40
2023-03-11T00:39:18.762Z,2.38
2023-03-11T00:49:18.999Z,2.12
2023-03-11T00:59:19.201Z,2.12
2023-03-11T01:09:19.442Z,2.10
2023-03-11T01:19:19.642Z,2.16
2023-03-11T01:29:19.902Z,2.34
2023-03-11T01:39:19.982Z,2.34
2023-03-11T01:49:20.109Z,2.41
2023-03-11T01:59:20.300Z,2.44
2023-03-11T02:09:20.552Z,2.30
2023-03-11T02:19:20.787Z,2.16
2023-03-11T02:29:20.915Z,1.94
2023-03-11T02:39:21.136Z,1.71
2023-03-11T02:49:21.267Z,1.50
2023-03-11T02:59:21.458Z,1.33
2023-03-11T03:09:21.701Z,1.18
2023-03-11T03:19:21.907Z,1.08
2023-03-11T03:29:22.147Z,0.85
2023-03-11T03:39:22.361Z,0.70
2023-03-11T03:49:22.600Z,0.49
2023-03-11T03:59:22.807Z,0.31
2023-03-11T04:09:23.043Z,0.30
2023-03-11T04:19:23.247Z,0.06
2023-03-11T04:29:23.383Z,0.09
2023-03-11T04:39:23.630Z,0.20
2023-03-11T04:49:23.735Z,0.13
2023-03-11T04:59:23.872Z,-0.16
2023-03-11T05:09:24.094Z,-0.23
2023-03-11T05:19:24.265Z,-0.33
2023-03-11T05:29:24.410Z,-0.51
2023-03-11T05:39:24.606Z,-0.59
2023-03-11T05:49:24.852Z,-0.57
2023-03-11T05:59:24.917Z,-0.55
2023-03-11T06:09:25.154Z,-0.47
2023-03-11T06:19:25.329Z,-0.34
2023-03-11T06:29:25.537Z,-0.30
2023-03-11T06:39:25.737Z,-0.30
2023-03-11T06:49:26.159Z,-0.13
2023-03-11T06:59:26.120Z,0.13
2023-03-11T07:09:26.413Z,0.60
2023-03-11T07:19:26.478Z,0.97
2023-03-11T07:29:26.980Z,1.33
2023-03-11T07:39:26.914Z,1.15
2023-03-11T07:49:27.209Z,1.24
2023-03-11T07:59:27.175Z,1.42
2023-03-11T08:09:27.421Z,1.80
2023-03-11T08:19:27.718Z,1.76
2023-03-11T08:29:28.016Z,2.12
2023-03-11T08:39:27.996Z,2.16
2023-03-11T08:49:28.265Z,2.91
2023-03-11T08:59:28.534Z,3.31
2023-03-11T09:09:28.542Z,3.00
2023-03-11T09:19:28.746Z,3.27
2023-03-11T09:29:28.984Z,2.69
2023-03-11T09:39:29.170Z,2.61
2023-03-11T09:49:29.303Z,3.12
2023-03-11T09:59:29.498Z,3.03
2023-03-11T10:09:29.744Z,4.51
2023-03-11T10:19:29.927Z,3.53
2023-03-11T10:29:30.163Z,4.55
2023-03-11T10:39:30.375Z,3.89
2023-03-11T10:49:30.498Z,6.83
2023-03-11T10:59:30.667Z,5.98
2023-03-11T11:09:30.936Z,5.82
2023-03-11T11:19:31.194Z,5.02
2023-03-11T11:29:31.493Z,7.27
2023-03-11T11:39:31.439Z,6.47
2023-03-11T11:49:31.737Z,4.64
2023-03-11T11:59:31.682Z,4.95
2023-03-11T12:09:31.827Z,5.92
2023-03-11T12:19:32.025Z,5.88
2023-03-11T12:29:32.542Z,6.87
2023-03-11T12:39:32.414Z,7.42
2023-03-11T12:49:32.795Z,7.32
2023-03-11T12:59:32.652Z,6.91
2023-03-11T13:09:33.046Z,8.08
2023-03-11T13:19:32.992Z,7.35
2023-03-11T13:29:33.296Z,8.83
2023-03-11T13:39:33.386Z,9.83
2023-03-11T13:49:33.565Z,5.60
2023-03-11T13:59:33.674Z,8.10
2023-03-11T14:09:33.888Z,7.94
2023-03-11T14:19:34.360Z,9.18
2023-03-11T14:29:34.272Z,9.66
2023-03-11T14:39:34.614Z,8.36
2023-03-11T14:49:34.612Z,8.21
2023-03-11T14:59:34.851Z,7.58
2023-03-11T15:09:34.848Z,7.04
2023-03-11T15:19:35.096Z,7.66
2023-03-11T15:29:35.234Z,6.61
2023-03-11T15:39:35.447Z,6.28
2023-03-11T15:49:35.568Z,6.13
2023-03-11T15:59:35.907Z,6.16
2023-03-11T16:09:35.907Z,5.70
2023-03-11T16:19:36.156Z,5.41
2023-03-11T16:29:36.266Z,5.25
2023-03-11T16:39:36.467Z,5.04
2023-03-11T16:49:37.010Z,4.80
2023-03-11T16:59:36.956Z,4.65
2023-03-11T17:09:38.185Z,4.44
2023-03-11T17:19:37.258Z,4.26
2023-03-11T17:29:37.513Z,4.08
2023-03-11T17:39:37.700Z,3.97
2023-03-11T17:49:38.067Z,3.83
2023-03-11T17:59:38.150Z,3.60
2023-03-11T18:09:38.323Z,3.00
2023-03-11T18:19:38.596Z,2.45
2023-03-11T18:29:38.866Z,2.26
2023-03-11T18:39:38.832Z,1.98
2023-03-11T18:49:39.093Z,1.78
2023-03-11T18:59:39.285Z,1.82
2023-03-11T19:09:39.529Z,1.60
2023-03-11T19:19:39.740Z,1.50
2023-03-11T19:29:39.925Z,1.15
2023-03-11T19:39:39.994Z,1.10
2023-03-11T19:49:40.309Z,0.71
2023-03-11T19:59:40.379Z,0.75
2023-03-11T20:09:40.647Z,0.96
2023-03-11T20:19:40.848Z,0.39
2023-03-11T20:29:41.158Z,0.13
2023-03-11T20:39:41.233Z,-0.11
2023-03-11T20:49:41.379Z,-0.11
2023-03-11T20:59:41.879Z,-0.18
2023-03-11T21:09:41.854Z,-0.13
2023-03-11T21:19:42.051Z,-0.36
2023-03-11T21:29:42.135Z,-0.26
2023-03-11T21:39:42.440Z,-0.39
2023-03-11T21:49:42.541Z,-0.59
2023-03-11T21:59:42.745Z,-0.95
2023-03-11T22:09:42.838Z,-0.83
2023-03-11T22:19:43.180Z,-0.45
2023-03-11T22:29:43.254Z,-0.45
2023-03-11T22:39:43.442Z,-0.47
2023-03-11T22:49:43.675Z,-1.07
2023-03-11T22:59:43.859Z,-1.02
2023-03-11T23:09:44.075Z,-1.23
2023-03-11T23:19:44.251Z,-1.45
2023-03-11T23:29:44.487Z,-1.25
2023-03-11T23:39:44.750Z,-1.56
2023-03-11T23:49:44.867Z,-1.21
2023-03-11T23:59:45.048Z,-1.48
